Time;durP1;ratioP1;P1;durP2;ratioP2;P2;SDS_P1;SDS_P2;PMS_P1;PMS_P2;Temp;Humidity;BMP_temperature;BMP_pressure;BME280_temperature;BME280_humidity;BME280_pressure;Samples;Min_cycle;Max_cycle;Signal;HPM_P1;HPM_P2
2022/07/03 00:01:36;;;;;;;14.40;4.28;;;;;;;;;;5116782;28;20292;-53
2022/07/03 00:04:04;;;;;;;7.47;3.70;;;;;;;;;;5116810;28;20510;-53
2022/07/03 00:06:31;;;;;;;11.57;3.15;;;;;;;;;;5116938;28;20270;-56
2022/07/03 00:09:00;;;;;;;10.13;3.85;;;;;;;;;;5116441;28;20297;-52
2022/07/03 00:11:27;;;;;;;7.85;3.63;;;;;;;;;;5116709;28;20201;-56
2022/07/03 00:13:54;;;;;;;7.55;3.67;;;;;;;;;;5116821;28;20288;-52
2022/07/03 00:16:21;;;;;;;9.80;3.88;;;;;;;;;;5116199;28;20268;-51
2022/07/03 00:18:48;;;;;;;7.85;3.08;;;;;;;;;;5116526;28;20209;-54
2022/07/03 00:21:30;;;;;;;11.02;3.60;;;;;;;;;;5116178;28;20707;-56
2022/07/03 00:24:04;;;;;;;8.63;3.45;;;;;;;;;;5116431;28;20198;-54
2022/07/03 00:26:34;;;;;;;10.73;3.15;;;;;;;;;;5115973;28;20273;-54
2022/07/03 00:29:03;;;;;;;10.75;2.95;;;;;;;;;;5116499;28;20206;-51
2022/07/03 00:31:31;;;;;;;12.52;3.83;;;;;;;;;;5125143;27;20230;-57
2022/07/03 00:34:00;;;;;;;11.65;3.38;;;;;;;;;;5136855;27;20270;-54
2022/07/03 00:36:30;;;;;;;4.97;2.95;;;;;;;;;;5136382;27;20672;-51
2022/07/03 00:38:56;;;;;;;8.70;3.08;;;;;;;;;;5135620;27;20651;-54
2022/07/03 00:41:28;;;;;;;7.97;2.92;;;;;;;;;;5136556;27;20522;-53
2022/07/03 00:43:56;;;;;;;9.65;3.15;;;;;;;;;;5136430;27;20209;-52
2022/07/03 00:46:25;;;;;;;11.15;3.17;;;;;;;;;;5136208;27;20208;-51
2022/07/03 00:48:53;;;;;;;8.55;3.30;;;;;;;;;;5136589;27;20197;-48
2022/07/03 00:51:24;;;;;;;8.57;3.40;;;;;;;;;;5136933;27;20209;-50
2022/07/03 00:53:53;;;;;;;12.43;3.47;;;;;;;;;;5136466;27;20209;-49
2022/07/03 00:56:29;;;;;;;11.52;3.78;;;;;;;;;;5136251;27;20236;-48
2022/07/03 00:58:58;;;;;;;14.38;3.53;;;;;;;;;;5136288;27;20208;-50
2022/07/03 01:01:28;;;;;;;9.48;3.50;;;;;;;;;;5136290;27;20662;-48
2022/07/03 01:04:32;;;;;;;11.10;3.60;;;;;;;;;;5136899;27;20185;-48
2022/07/03 01:07:03;;;;;;;9.82;3.45;;;;;;;;;;5136283;27;20201;-50
2022/07/03 01:09:41;;;;;;;8.07;3.85;;;;;;;;;;5135989;27;20206;-50
2022/07/03 01:12:22;;;;;;;9.65;3.47;;;;;;;;;;5135551;27;20209;-52
2022/07/03 01:15:11;;;;;;;13.10;4.15;;;;;;;;;;5135212;27;20234;-49
2022/07/03 01:17:39;;;;;;;11.10;4.85;;;;;;;;;;5135780;27;20220;-55
2022/07/03 01:20:07;;;;;;;14.57;4.10;;;;;;;;;;5136042;27;20209;-49
2022/07/03 01:22:37;;;;;;;8.48;3.78;;;;;;;;;;5136082;27;20209;-49
2022/07/03 01:25:14;;;;;;;15.18;3.92;;;;;;;;;;5136028;27;20205;-49
2022/07/03 01:28:09;;;;;;;6.28;3.50;;;;;;;;;;5136318;27;20185;-53
2022/07/03 01:30:45;;;;;;;9.63;4.10;;;;;;;;;;5135726;28;20201;-50
2022/07/03 01:33:16;;;;;;;10.35;3.90;;;;;;;;;;5136043;27;20273;-54
2022/07/03 01:35:58;;;;;;;8.15;3.58;;;;;;;;;;5135631;27;20207;-51
2022/07/03 01:38:27;;;;;;;10.57;4.25;;;;;;;;;;5135607;27;20221;-49
2022/07/03 01:40:56;;;;;;;10.48;4.00;;;;;;;;;;5135620;27;20201;-49
2022/07/03 01:43:28;;;;;;;14.57;4.38;;;;;;;;;;5134990;28;20531;-49
2022/07/03 01:45:58;;;;;;;14.10;4.13;;;;;;;;;;5135800;27;20518;-53
2022/07/03 01:48:26;;;;;;;9.43;4.03;;;;;;;;;;5135575;27;20253;-50
2022/07/03 01:50:55;;;;;;;12.25;4.45;;;;;;;;;;5136157;27;20201;-49
2022/07/03 01:53:28;;;;;;;9.93;3.85;;;;;;;;;;5139392;27;20785;-48
2022/07/03 01:55:57;;;;;;;10.25;3.95;;;;;;;;;;5139569;27;20223;-51
2022/07/03 01:58:24;;;;;;;8.18;3.60;;;;;;;;;;5139487;27;20200;-48
2022/07/03 02:01:01;;;;;;;12.38;3.70;;;;;;;;;;5139477;27;20249;-48
2022/07/03 02:03:34;;;;;;;10.43;3.65;;;;;;;;;;5139225;27;20530;-52
2022/07/03 02:06:04;;;;;;;11.77;3.33;;;;;;;;;;5139233;27;20284;-49
2022/07/03 02:08:58;;;;;;;8.77;3.78;;;;;;;;;;5139179;27;20197;-48
2022/07/03 02:11:46;;;;;;;7.25;3.40;;;;;;;;;;5139416;27;20235;-48
2022/07/03 02:14:17;;;;;;;10.13;3.80;;;;;;;;;;5139223;27;20614;-50
2022/07/03 02:17:02;;;;;;;11.55;3.90;;;;;;;;;;5139103;27;20221;-49
2022/07/03 02:19:45;;;;;;;12.65;3.25;;;;;;;;;;5139072;27;20201;-48
2022/07/03 02:22:13;;;;;;;14.07;3.58;;;;;;;;;;5138952;27;20197;-49
2022/07/03 02:24:44;;;;;;;7.25;3.83;;;;;;;;;;5138746;27;20205;-48
2022/07/03 02:27:20;;;;;;;7.70;3.08;;;;;;;;;;5138866;27;20205;-49
2022/07/03 02:30:02;;;;;;;8.40;3.42;;;;;;;;;;5138211;27;20190;-49
2022/07/03 02:32:32;;;;;;;5.43;3.38;;;;;;;;;;5139065;27;20185;-50
2022/07/03 02:35:05;;;;;;;8.05;3.30;;;;;;;;;;5138591;27;20201;-48
2022/07/03 02:37:37;;;;;;;11.40;3.08;;;;;;;;;;5138788;27;20273;-49
2022/07/03 02:40:16;;;;;;;8.82;3.10;;;;;;;;;;5138835;27;20190;-50
2022/07/03 02:42:56;;;;;;;9.77;3.95;;;;;;;;;;5137604;27;20618;-51
2022/07/03 02:45:25;;;;;;;12.48;3.47;;;;;;;;;;5138386;27;20672;-50
2022/07/03 02:48:35;;;;;;;11.65;3.00;;;;;;;;;;5137656;27;20210;-49
2022/07/03 02:51:06;;;;;;;7.22;3.33;;;;;;;;;;5127681;27;20205;-48
2022/07/03 02:53:41;;;;;;;8.60;3.17;;;;;;;;;;5138244;27;20197;-50
2022/07/03 02:56:15;;;;;;;6.53;2.80;;;;;;;;;;5138593;27;20200;-55
2022/07/03 02:59:14;;;;;;;8.63;3.05;;;;;;;;;;5139224;27;20223;-50
2022/07/03 03:02:32;;;;;;;7.53;2.72;;;;;;;;;;5137012;27;20601;-49
2022/07/03 03:05:07;;;;;;;6.75;3.00;;;;;;;;;;5055192;28;20203;-52
2022/07/03 03:07:50;;;;;;;8.40;2.95;;;;;;;;;;5056037;28;20212;-49
2022/07/03 03:10:19;;;;;;;6.32;2.80;;;;;;;;;;5055307;28;20230;-49
2022/07/03 03:12:58;;;;;;;5.03;2.47;;;;;;;;;;5038746;28;20200;-49
2022/07/03 03:15:25;;;;;;;7.20;2.53;;;;;;;;;;5055685;28;20200;-53
2022/07/03 03:17:55;;;;;;;6.00;2.30;;;;;;;;;;5055215;28;20232;-49
2022/07/03 03:20:27;;;;;;;7.72;2.22;;;;;;;;;;5055067;28;20291;-54
2022/07/03 03:23:09;;;;;;;5.53;2.65;;;;;;;;;;5055135;28;20322;-57
2022/07/03 03:25:37;;;;;;;5.70;2.50;;;;;;;;;;5055109;28;20211;-54
2022/07/03 03:28:04;;;;;;;8.85;2.72;;;;;;;;;;5055481;28;20277;-49
2022/07/03 03:30:31;;;;;;;4.70;2.80;;;;;;;;;;5054881;28;20224;-50
2022/07/03 03:32:58;;;;;;;2.83;2.30;;;;;;;;;;5054803;28;20207;-55
2022/07/03 03:35:25;;;;;;;4.93;2.53;;;;;;;;;;5055170;28;20217;-54
2022/07/03 03:37:53;;;;;;;8.43;2.58;;;;;;;;;;5038130;28;20746;-50
2022/07/03 03:40:20;;;;;;;2.75;2.10;;;;;;;;;;5087319;27;20197;-51
2022/07/03 03:42:47;;;;;;;5.18;2.45;;;;;;;;;;5137850;27;20209;-50
2022/07/03 03:45:14;;;;;;;4.00;2.13;;;;;;;;;;5137717;27;20194;-49
2022/07/03 03:47:41;;;;;;;4.88;2.47;;;;;;;;;;5137681;27;20197;-54
2022/07/03 03:50:09;;;;;;;3.92;2.35;;;;;;;;;;5137273;27;20254;-57
2022/07/03 03:52:35;;;;;;;8.43;2.45;;;;;;;;;;5137600;27;20197;-57
2022/07/03 03:55:03;;;;;;;5.75;2.28;;;;;;;;;;5137496;27;20197;-50
2022/07/03 03:57:30;;;;;;;3.17;2.60;;;;;;;;;;5137401;27;20229;-49
2022/07/03 03:59:57;;;;;;;5.80;2.58;;;;;;;;;;5137264;27;20270;-56
2022/07/03 04:02:24;;;;;;;6.97;2.47;;;;;;;;;;5137452;27;20205;-57
2022/07/03 04:04:51;;;;;;;4.63;2.40;;;;;;;;;;5137331;27;20205;-57
2022/07/03 04:07:18;;;;;;;4.80;2.20;;;;;;;;;;5137375;27;20231;-57
2022/07/03 04:09:45;;;;;;;5.65;2.30;;;;;;;;;;5137134;27;20201;-57
2022/07/03 04:12:14;;;;;;;5.28;2.53;;;;;;;;;;5137082;27;20258;-55
2022/07/03 04:14:41;;;;;;;1.92;1.70;;;;;;;;;;5136922;27;20197;-56
2022/07/03 04:17:08;;;;;;;2.65;1.92;;;;;;;;;;5136648;27;20224;-54
2022/07/03 04:19:35;;;;;;;6.40;2.30;;;;;;;;;;5136975;27;20198;-50
2022/07/03 04:22:08;;;;;;;3.58;2.50;;;;;;;;;;5137441;27;20197;-49
2022/07/03 04:24:36;;;;;;;4.75;2.25;;;;;;;;;;5136623;27;20626;-53
2022/07/03 04:27:03;;;;;;;4.20;2.70;;;;;;;;;;5136407;27;20230;-52
2022/07/03 04:29:30;;;;;;;6.85;2.85;;;;;;;;;;5136264;27;20194;-50
2022/07/03 04:31:57;;;;;;;3.22;2.63;;;;;;;;;;5136139;27;20193;-50
2022/07/03 04:34:24;;;;;;;4.75;2.65;;;;;;;;;;5122120;27;20277;-48
2022/07/03 04:36:51;;;;;;;6.65;2.83;;;;;;;;;;5122743;27;20599;-48
2022/07/03 04:39:18;;;;;;;6.18;3.03;;;;;;;;;;5136514;27;20254;-53
2022/07/03 04:41:45;;;;;;;7.72;3.70;;;;;;;;;;5136273;27;20258;-48
2022/07/03 04:44:12;;;;;;;4.35;3.40;;;;;;;;;;5136323;27;20201;-48
2022/07/03 04:46:40;;;;;;;5.93;4.20;;;;;;;;;;5136494;27;20205;-49
2022/07/03 04:49:07;;;;;;;6.63;4.30;;;;;;;;;;5136589;27;20201;-48
2022/07/03 04:51:34;;;;;;;7.60;4.43;;;;;;;;;;5136440;27;20198;-48
2022/07/03 04:54:01;;;;;;;7.47;4.97;;;;;;;;;;5136520;27;20269;-56
2022/07/03 04:56:29;;;;;;;10.13;5.47;;;;;;;;;;5136072;27;20209;-57
2022/07/03 04:58:55;;;;;;;12.85;4.95;;;;;;;;;;5136400;27;20312;-55
2022/07/03 05:01:22;;;;;;;6.80;5.35;;;;;;;;;;5136207;27;20613;-53
2022/07/03 05:03:50;;;;;;;8.30;5.15;;;;;;;;;;5136525;27;20213;-52
2022/07/03 05:06:17;;;;;;;10.20;5.20;;;;;;;;;;5136030;27;20201;-48
2022/07/03 05:08:46;;;;;;;7.97;5.80;;;;;;;;;;5136026;27;20291;-47
2022/07/03 05:11:13;;;;;;;12.38;5.70;;;;;;;;;;5135962;27;20209;-46
2022/07/03 05:13:40;;;;;;;10.45;5.63;;;;;;;;;;5136184;27;20258;-49
2022/07/03 05:16:07;;;;;;;8.25;6.03;;;;;;;;;;5135755;27;20197;-47
2022/07/03 05:18:35;;;;;;;10.27;5.75;;;;;;;;;;5135907;27;20590;-47
2022/07/03 05:21:02;;;;;;;9.63;6.40;;;;;;;;;;5135794;27;20582;-48
2022/07/03 05:23:29;;;;;;;11.00;6.65;;;;;;;;;;5135847;28;20687;-49
2022/07/03 05:25:58;;;;;;;12.80;6.70;;;;;;;;;;5135160;27;20642;-48
2022/07/03 05:28:25;;;;;;;8.48;6.43;;;;;;;;;;5136001;27;20266;-47
2022/07/03 05:30:52;;;;;;;9.70;6.05;;;;;;;;;;5135942;27;20193;-47
2022/07/03 05:33:19;;;;;;;9.63;6.60;;;;;;;;;;5135982;27;20209;-49
2022/07/03 05:35:46;;;;;;;11.25;6.38;;;;;;;;;;5135992;27;20525;-47
2022/07/03 05:39:31;;;;;;;11.00;6.95;;;;;;;;;;5135804;27;20221;-49
2022/07/03 05:41:00;;;;;;;12.38;6.10;;;;;;;;;;5135578;27;20208;-47
2022/07/03 05:43:27;;;;;;;12.38;6.18;;;;;;;;;;5135576;27;20547;-48
2022/07/03 05:45:54;;;;;;;9.95;6.22;;;;;;;;;;5135938;27;20221;-47
2022/07/03 05:48:21;;;;;;;8.48;5.63;;;;;;;;;;5135919;27;20582;-45
2022/07/03 05:50:48;;;;;;;9.50;5.57;;;;;;;;;;5134926;28;20208;-45
2022/07/03 05:53:15;;;;;;;7.93;5.10;;;;;;;;;;5135846;27;20209;-51
2022/07/03 05:55:42;;;;;;;8.18;5.22;;;;;;;;;;5135435;27;20694;-45
2022/07/03 05:58:09;;;;;;;8.82;5.15;;;;;;;;;;5135677;27;20589;-45
2022/07/03 06:00:36;;;;;;;7.57;5.55;;;;;;;;;;5135580;27;20253;-45
2022/07/03 06:03:03;;;;;;;11.07;5.43;;;;;;;;;;5135686;27;20201;-45
2022/07/03 06:05:32;;;;;;;10.90;5.40;;;;;;;;;;5135330;27;20193;-45
2022/07/03 06:07:59;;;;;;;7.70;5.50;;;;;;;;;;5135616;27;20201;-46
2022/07/03 06:10:27;;;;;;;11.13;5.53;;;;;;;;;;5135812;27;20212;-45
2022/07/03 06:12:54;;;;;;;7.00;5.22;;;;;;;;;;5135509;27;20209;-46
2022/07/03 06:15:21;;;;;;;7.82;5.03;;;;;;;;;;5135476;27;20201;-47
2022/07/03 06:17:49;;;;;;;9.05;6.00;;;;;;;;;;5135464;27;20286;-47
2022/07/03 06:20:16;;;;;;;11.57;6.03;;;;;;;;;;5135595;27;20197;-45
2022/07/03 06:22:43;;;;;;;8.98;6.22;;;;;;;;;;5135540;27;20201;-45
2022/07/03 06:25:10;;;;;;;12.93;6.55;;;;;;;;;;5135283;27;20258;-45
2022/07/03 06:27:37;;;;;;;11.80;6.72;;;;;;;;;;5135448;27;20245;-45
2022/07/03 06:30:05;;;;;;;12.25;6.38;;;;;;;;;;5134658;28;20215;-45
2022/07/03 06:32:32;;;;;;;10.77;6.35;;;;;;;;;;5135420;27;20205;-46
2022/07/03 06:34:59;;;;;;;9.27;6.78;;;;;;;;;;5135067;27;20543;-45
2022/07/03 06:37:26;;;;;;;8.98;6.88;;;;;;;;;;5135889;27;20232;-45
2022/07/03 06:39:53;;;;;;;9.85;7.50;;;;;;;;;;5133252;27;20229;-45
2022/07/03 06:42:20;;;;;;;9.07;7.13;;;;;;;;;;5143083;27;20228;-45
2022/07/03 06:44:47;;;;;;;17.23;7.13;;;;;;;;;;5158146;27;20232;-49
2022/07/03 06:47:19;;;;;;;8.50;7.60;;;;;;;;;;5159065;27;20221;-50
2022/07/03 06:49:46;;;;;;;10.27;7.47;;;;;;;;;;5128599;27;20230;-50
2022/07/03 06:52:13;;;;;;;11.20;7.75;;;;;;;;;;5135391;27;20221;-48
2022/07/03 06:54:43;;;;;;;14.32;8.52;;;;;;;;;;5137269;27;20236;-62
2022/07/03 06:57:14;;;;;;;13.77;8.90;;;;;;;;;;5136871;27;20225;-55
2022/07/03 06:59:42;;;;;;;11.50;8.48;;;;;;;;;;5137482;27;20224;-57
2022/07/03 07:02:12;;;;;;;10.38;8.40;;;;;;;;;;5137457;27;20620;-56
2022/07/03 07:04:39;;;;;;;12.70;8.70;;;;;;;;;;5136895;27;20231;-57
2022/07/03 07:07:06;;;;;;;12.95;9.02;;;;;;;;;;5137214;27;20229;-53
2022/07/03 07:09:33;;;;;;;9.60;8.50;;;;;;;;;;5136883;27;20225;-50
2022/07/03 07:11:59;;;;;;;17.38;9.13;;;;;;;;;;5136686;27;20225;-56
2022/07/03 07:14:27;;;;;;;14.18;9.40;;;;;;;;;;5137704;27;20258;-57
2022/07/03 07:16:54;;;;;;;12.68;9.23;;;;;;;;;;5136723;27;20225;-56
2022/07/03 07:19:21;;;;;;;16.23;10.20;;;;;;;;;;5136849;27;20228;-54
2022/07/03 07:21:48;;;;;;;15.35;10.27;;;;;;;;;;5136809;27;20361;-55
2022/07/03 07:24:15;;;;;;;15.40;10.90;;;;;;;;;;5136743;27;20239;-56
2022/07/03 07:26:42;;;;;;;13.95;9.80;;;;;;;;;;5136971;27;20278;-59
2022/07/03 07:29:09;;;;;;;15.38;10.52;;;;;;;;;;5136818;27;20232;-58
2022/07/03 07:31:36;;;;;;;16.90;11.65;;;;;;;;;;5121350;27;20230;-59
2022/07/03 07:34:04;;;;;;;14.30;10.25;;;;;;;;;;5116622;27;21072;-59
2022/07/03 07:36:32;;;;;;;18.38;11.38;;;;;;;;;;5131918;27;20242;-57
2022/07/03 07:38:59;;;;;;;18.33;12.65;;;;;;;;;;5135211;27;20765;-58
2022/07/03 07:41:26;;;;;;;19.95;12.32;;;;;;;;;;5134644;27;20599;-58
2022/07/03 07:43:53;;;;;;;21.80;12.15;;;;;;;;;;5135652;27;20213;-58
2022/07/03 07:46:20;;;;;;;19.48;12.75;;;;;;;;;;5135497;27;20213;-59
2022/07/03 07:48:47;;;;;;;17.35;12.35;;;;;;;;;;5134999;27;20307;-58
2022/07/03 07:51:15;;;;;;;15.60;11.95;;;;;;;;;;5135222;27;20212;-58
2022/07/03 07:53:42;;;;;;;18.67;12.27;;;;;;;;;;5135533;27;20512;-58
2022/07/03 07:56:12;;;;;;;18.25;11.80;;;;;;;;;;5135292;27;20226;-58
2022/07/03 07:58:39;;;;;;;17.08;13.38;;;;;;;;;;5135384;27;20236;-58
2022/07/03 08:06:38;;;;;;;22.20;13.15;;;;;;;;;;5136113;27;20656;-59
2022/07/03 08:09:05;;;;;;;22.88;13.38;;;;;;;;;;5124409;27;20225;-59
2022/07/03 08:11:32;;;;;;;21.33;14.00;;;;;;;;;;5120991;27;20217;-58
2022/07/03 08:13:58;;;;;;;20.70;13.77;;;;;;;;;;5136202;27;20225;-59
2022/07/03 08:16:25;;;;;;;17.75;13.13;;;;;;;;;;5136272;27;20229;-59
2022/07/03 08:18:53;;;;;;;26.58;13.90;;;;;;;;;;5136658;27;20233;-59
2022/07/03 08:21:20;;;;;;;19.65;14.73;;;;;;;;;;5136544;27;20263;-59
2022/07/03 08:23:47;;;;;;;20.63;13.95;;;;;;;;;;5135023;27;20221;-59
2022/07/03 08:26:14;;;;;;;20.52;13.93;;;;;;;;;;5136321;27;20228;-59
2022/07/03 08:28:41;;;;;;;23.25;13.93;;;;;;;;;;5136040;27;20277;-58
2022/07/03 08:31:08;;;;;;;21.88;13.30;;;;;;;;;;5135677;27;20225;-58
2022/07/03 08:33:35;;;;;;;20.92;15.10;;;;;;;;;;5135689;27;20277;-58
2022/07/03 08:36:05;;;;;;;20.83;14.07;;;;;;;;;;5135415;27;20229;-58
2022/07/03 08:38:33;;;;;;;20.55;14.68;;;;;;;;;;5134688;27;20242;-59
2022/07/03 08:41:02;;;;;;;23.27;14.48;;;;;;;;;;5134358;27;20228;-59
2022/07/03 08:43:29;;;;;;;19.27;13.38;;;;;;;;;;5135582;27;20609;-59
2022/07/03 08:45:58;;;;;;;22.42;14.35;;;;;;;;;;5135175;27;20224;-59
2022/07/03 08:48:25;;;;;;;20.50;14.02;;;;;;;;;;5135279;27;20607;-58
2022/07/03 08:50:53;;;;;;;21.80;13.70;;;;;;;;;;5135165;27;20251;-59
2022/07/03 08:53:20;;;;;;;20.92;13.20;;;;;;;;;;5134619;27;20354;-60
2022/07/03 08:55:48;;;;;;;19.80;13.35;;;;;;;;;;5137598;27;20270;-59
2022/07/03 08:58:19;;;;;;;15.35;12.15;;;;;;;;;;5135582;27;20321;-60
2022/07/03 09:00:46;;;;;;;15.05;11.75;;;;;;;;;;5133990;27;20237;-59
2022/07/03 09:03:14;;;;;;;20.33;13.18;;;;;;;;;;5134443;27;20248;-60
2022/07/03 09:05:41;;;;;;;16.80;12.85;;;;;;;;;;5135675;27;20281;-60
2022/07/03 09:08:09;;;;;;;17.08;12.38;;;;;;;;;;5134199;27;20229;-60
2022/07/03 09:10:37;;;;;;;18.40;12.30;;;;;;;;;;5135506;27;20248;-61
2022/07/03 09:13:03;;;;;;;19.10;12.15;;;;;;;;;;5134985;27;20225;-62
2022/07/03 09:15:31;;;;;;;17.17;12.05;;;;;;;;;;5135396;27;20217;-60
2022/07/03 09:18:00;;;;;;;14.73;11.27;;;;;;;;;;5134785;27;20726;-60
2022/07/03 09:20:36;;;;;;;20.15;11.82;;;;;;;;;;5135028;27;20231;-59
2022/07/03 09:23:12;;;;;;;16.75;10.52;;;;;;;;;;5134367;27;20221;-59
2022/07/03 09:25:58;;;;;;;14.95;9.98;;;;;;;;;;5132209;27;20255;-60
2022/07/03 09:28:55;;;;;;;15.57;9.10;;;;;;;;;;5114964;28;20283;-59
2022/07/03 09:31:27;;;;;;;14.57;9.02;;;;;;;;;;5073146;28;20231;-60
2022/07/03 09:34:05;;;;;;;12.98;8.23;;;;;;;;;;5073409;28;20204;-59
2022/07/03 09:36:51;;;;;;;11.43;8.85;;;;;;;;;;5072941;28;20620;-59
2022/07/03 09:39:26;;;;;;;14.68;9.73;;;;;;;;;;5073118;28;20613;-59
2022/07/03 09:42:09;;;;;;;13.60;8.50;;;;;;;;;;5072911;28;20514;-59
2022/07/03 09:44:40;;;;;;;13.13;8.95;;;;;;;;;;5073293;28;20203;-59
2022/07/03 09:47:18;;;;;;;12.48;9.85;;;;;;;;;;5073065;28;20286;-59
2022/07/03 09:49:54;;;;;;;13.98;10.07;;;;;;;;;;5073260;28;20286;-59
2022/07/03 09:52:47;;;;;;;11.55;9.32;;;;;;;;;;5072898;28;20613;-58
2022/07/03 09:55:18;;;;;;;15.27;9.48;;;;;;;;;;5070286;28;20199;-60
2022/07/03 09:57:50;;;;;;;14.77;9.85;;;;;;;;;;5073419;28;20214;-60
2022/07/03 10:00:25;;;;;;;12.18;9.07;;;;;;;;;;5072740;28;20235;-60
2022/07/03 10:02:53;;;;;;;10.75;8.82;;;;;;;;;;5072988;28;20198;-59
2022/07/03 10:05:21;;;;;;;12.80;9.40;;;;;;;;;;5072743;28;20632;-60
2022/07/03 10:07:56;;;;;;;16.17;8.90;;;;;;;;;;5093868;28;20268;-60
2022/07/03 10:10:25;;;;;;;13.18;9.23;;;;;;;;;;5115190;28;20591;-60
2022/07/03 10:12:53;;;;;;;12.50;9.07;;;;;;;;;;5118032;28;20703;-59
2022/07/03 10:15:21;;;;;;;13.00;9.25;;;;;;;;;;5118632;28;20228;-60
2022/07/03 10:17:50;;;;;;;10.63;8.57;;;;;;;;;;5119301;28;20505;-59
2022/07/03 10:20:35;;;;;;;14.48;9.55;;;;;;;;;;5118557;27;20600;-60
2022/07/03 10:23:02;;;;;;;13.38;9.57;;;;;;;;;;5119055;28;20183;-59
2022/07/03 10:25:33;;;;;;;16.30;9.95;;;;;;;;;;5118470;28;20363;-59
2022/07/03 10:28:00;;;;;;;12.63;10.48;;;;;;;;;;5118511;28;20187;-60
2022/07/03 10:30:28;;;;;;;14.60;10.80;;;;;;;;;;5118406;28;20217;-59
2022/07/03 10:32:56;;;;;;;15.68;10.02;;;;;;;;;;5118360;28;20638;-60
2022/07/03 10:35:34;;;;;;;16.50;9.95;;;;;;;;;;5118507;28;20251;-60
2022/07/03 10:38:01;;;;;;;14.40;10.20;;;;;;;;;;5134977;27;20194;-59
2022/07/03 10:46:32;;;;;;;13.57;10.27;;;;;;;;;;5146726;27;20182;-59
2022/07/03 10:49:12;;;;;;;18.77;10.82;;;;;;;;;;5118040;28;20589;-59
2022/07/03 10:51:45;;;;;;;13.00;10.60;;;;;;;;;;5118346;28;20198;-59
2022/07/03 10:54:23;;;;;;;16.77;9.38;;;;;;;;;;5118395;28;20198;-59
2022/07/03 10:57:17;;;;;;;8.98;7.57;;;;;;;;;;5118046;28;20197;-61
2022/07/03 10:59:44;;;;;;;10.50;7.85;;;;;;;;;;5116339;28;20259;-59
2022/07/03 11:02:21;;;;;;;9.80;7.40;;;;;;;;;;5118113;28;20209;-59
2022/07/03 11:07:27;;;;;;;9.38;8.43;;;;;;;;;;5117712;28;20207;-60
2022/07/03 11:10:13;;;;;;;9.25;8.30;;;;;;;;;;5117791;27;20213;-61
2022/07/03 11:12:56;;;;;;;9.77;8.75;;;;;;;;;;5129902;27;20302;-60
2022/07/03 11:15:27;;;;;;;9.75;8.43;;;;;;;;;;5127651;27;20665;-61
2022/07/03 11:18:09;;;;;;;11.80;9.05;;;;;;;;;;5130682;27;20218;-66
2022/07/03 11:20:45;;;;;;;12.55;8.05;;;;;;;;;;5130799;27;20233;-60
2022/07/03 11:23:28;;;;;;;11.48;8.82;;;;;;;;;;5144009;27;20217;-60
2022/07/03 11:25:56;;;;;;;9.65;8.10;;;;;;;;;;5124650;27;20282;-60
2022/07/03 11:28:32;;;;;;;11.75;8.23;;;;;;;;;;5135567;27;20235;-60
2022/07/03 11:31:18;;;;;;;9.52;7.93;;;;;;;;;;5126198;27;20256;-60
2022/07/03 11:33:51;;;;;;;9.55;7.97;;;;;;;;;;5137174;27;20225;-60
2022/07/03 11:36:21;;;;;;;11.82;8.52;;;;;;;;;;5135976;27;20294;-57
2022/07/03 11:39:02;;;;;;;11.55;8.68;;;;;;;;;;5132090;27;20258;-60
2022/07/03 11:41:35;;;;;;;10.05;7.75;;;;;;;;;;5115637;27;20558;-59
2022/07/03 11:44:04;;;;;;;10.65;7.55;;;;;;;;;;5115928;28;20674;-60
2022/07/03 11:46:36;;;;;;;9.32;8.32;;;;;;;;;;5116024;28;20317;-61
2022/07/03 11:49:07;;;;;;;9.45;8.15;;;;;;;;;;5115945;27;20237;-60
2022/07/03 11:51:35;;;;;;;12.48;8.68;;;;;;;;;;5128430;27;20232;-60
2022/07/03 11:54:03;;;;;;;10.98;8.65;;;;;;;;;;5136268;27;20255;-60
2022/07/03 11:56:30;;;;;;;11.98;9.23;;;;;;;;;;5136316;27;20220;-57
2022/07/03 11:59:00;;;;;;;12.55;9.40;;;;;;;;;;5135142;27;20240;-59
2022/07/03 12:01:28;;;;;;;13.15;9.32;;;;;;;;;;5136165;27;20237;-59
2022/07/03 12:04:15;;;;;;;10.40;8.77;;;;;;;;;;5135796;27;20221;-59
2022/07/03 12:06:51;;;;;;;10.93;8.50;;;;;;;;;;5136088;27;20542;-59
2022/07/03 12:09:23;;;;;;;10.63;8.35;;;;;;;;;;5136278;27;20285;-59
2022/07/03 12:12:01;;;;;;;8.93;7.70;;;;;;;;;;5135757;27;20692;-59
2022/07/03 12:14:34;;;;;;;10.13;8.95;;;;;;;;;;5136224;27;20232;-59
2022/07/03 12:17:02;;;;;;;10.93;8.68;;;;;;;;;;5135818;27;20236;-59
2022/07/03 12:19:29;;;;;;;13.15;8.73;;;;;;;;;;5136027;27;20240;-59
2022/07/03 12:21:56;;;;;;;11.60;8.80;;;;;;;;;;5136305;27;20225;-59
2022/07/03 12:24:23;;;;;;;9.60;8.45;;;;;;;;;;5134154;27;20225;-59
2022/07/03 12:26:50;;;;;;;9.55;7.93;;;;;;;;;;5146727;27;20227;-59
2022/07/03 12:29:18;;;;;;;11.52;7.68;;;;;;;;;;5154413;27;20664;-59
2022/07/03 12:31:47;;;;;;;12.15;8.27;;;;;;;;;;5134664;27;20236;-59
2022/07/03 12:34:15;;;;;;;9.38;8.38;;;;;;;;;;5135677;27;20674;-59
2022/07/03 12:36:57;;;;;;;8.93;7.97;;;;;;;;;;5135821;27;20225;-59
2022/07/03 12:39:43;;;;;;;10.85;7.68;;;;;;;;;;5135690;27;20236;-60
2022/07/03 12:42:17;;;;;;;10.50;7.45;;;;;;;;;;5136101;27;20312;-59
2022/07/03 12:44:58;;;;;;;8.10;7.30;;;;;;;;;;5135377;27;20297;-60
2022/07/03 12:47:26;;;;;;;8.32;7.03;;;;;;;;;;5135980;27;20247;-60
2022/07/03 12:50:00;;;;;;;9.27;7.53;;;;;;;;;;5135469;27;20241;-59
2022/07/03 12:52:29;;;;;;;10.40;7.80;;;;;;;;;;5134050;27;20217;-59
2022/07/03 12:54:57;;;;;;;9.85;8.18;;;;;;;;;;5134045;27;20223;-59
2022/07/03 13:00:17;;;;;;;12.93;7.70;;;;;;;;;;5130898;27;20233;-60
2022/07/03 13:02:46;;;;;;;11.18;7.75;;;;;;;;;;5135483;27;20226;-59
2022/07/03 13:05:21;;;;;;;7.90;7.10;;;;;;;;;;5135423;27;20233;-59
2022/07/03 13:07:49;;;;;;;12.60;7.30;;;;;;;;;;5134197;27;20246;-59
2022/07/03 13:10:18;;;;;;;9.02;7.20;;;;;;;;;;5134876;27;20580;-60
2022/07/03 13:12:47;;;;;;;12.75;8.15;;;;;;;;;;5135060;27;20565;-60
2022/07/03 13:15:15;;;;;;;10.95;7.20;;;;;;;;;;5134675;27;20221;-60
2022/07/03 13:17:55;;;;;;;7.55;6.65;;;;;;;;;;5135344;27;20225;-59
2022/07/03 13:20:24;;;;;;;8.65;6.50;;;;;;;;;;5135407;27;20225;-59
2022/07/03 13:22:52;;;;;;;12.15;7.50;;;;;;;;;;5134810;27;20552;-59
2022/07/03 13:25:20;;;;;;;8.80;6.57;;;;;;;;;;5134909;27;20290;-59
2022/07/03 13:27:47;;;;;;;8.65;7.10;;;;;;;;;;5134566;27;20277;-59
2022/07/03 13:30:18;;;;;;;7.13;6.43;;;;;;;;;;5134962;27;20226;-51
2022/07/03 13:32:46;;;;;;;13.38;7.00;;;;;;;;;;5124809;27;20214;-59
2022/07/03 13:35:13;;;;;;;7.95;5.75;;;;;;;;;;5129658;27;20651;-59
2022/07/03 13:37:40;;;;;;;8.85;6.20;;;;;;;;;;5114198;28;20739;-59
2022/07/03 13:40:08;;;;;;;9.50;5.93;;;;;;;;;;5113160;27;20606;-71
2022/07/03 13:42:35;;;;;;;7.10;6.13;;;;;;;;;;5114616;28;20298;-63
2022/07/03 13:45:03;;;;;;;8.95;6.10;;;;;;;;;;5114090;27;20240;-60
2022/07/03 13:47:30;;;;;;;9.82;6.00;;;;;;;;;;5126556;27;20217;-60
2022/07/03 13:49:57;;;;;;;7.32;5.50;;;;;;;;;;5137954;27;20252;-59
2022/07/03 13:52:24;;;;;;;10.65;5.88;;;;;;;;;;5138930;27;20249;-62
2022/07/03 13:54:51;;;;;;;7.80;5.47;;;;;;;;;;5138669;27;20352;-63
2022/07/03 13:57:18;;;;;;;6.47;5.13;;;;;;;;;;5154109;27;20292;-56
2022/07/03 13:59:47;;;;;;;7.93;6.13;;;;;;;;;;5156552;27;20236;-57
2022/07/03 14:02:14;;;;;;;7.15;5.40;;;;;;;;;;5118302;27;20226;-61
2022/07/03 14:04:42;;;;;;;8.95;5.07;;;;;;;;;;5118275;28;20231;-67
2022/07/03 14:07:14;;;;;;;6.55;4.75;;;;;;;;;;5118204;27;20229;-57
2022/07/03 14:09:41;;;;;;;6.43;5.40;;;;;;;;;;5117605;28;20226;-57
2022/07/03 14:12:08;;;;;;;6.97;5.10;;;;;;;;;;5117771;27;20222;-68
2022/07/03 14:14:36;;;;;;;6.05;4.82;;;;;;;;;;5117711;28;20217;-63
2022/07/03 14:17:03;;;;;;;7.55;5.55;;;;;;;;;;5117616;27;20217;-61
2022/07/03 14:19:30;;;;;;;6.05;5.03;;;;;;;;;;5118147;28;20230;-63
2022/07/03 14:21:57;;;;;;;7.82;5.15;;;;;;;;;;5135895;27;20229;-65
2022/07/03 14:24:24;;;;;;;7.65;5.13;;;;;;;;;;5133996;27;20294;-61
2022/07/03 14:32:31;;;;;;;8.07;5.18;;;;;;;;;;5158941;27;20231;-62
2022/07/03 14:35:00;;;;;;;5.90;4.68;;;;;;;;;;5131839;27;20213;-62
2022/07/03 14:37:28;;;;;;;6.50;5.25;;;;;;;;;;5128417;27;20252;-60
2022/07/03 14:39:55;;;;;;;5.68;4.53;;;;;;;;;;5134544;27;20289;-49
2022/07/03 14:42:23;;;;;;;6.95;4.28;;;;;;;;;;5131962;27;20239;-48
2022/07/03 14:44:50;;;;;;;6.35;4.82;;;;;;;;;;5137770;27;20217;-65
2022/07/03 14:47:17;;;;;;;6.22;4.53;;;;;;;;;;5137821;27;20248;-47
2022/07/03 14:49:45;;;;;;;5.53;4.43;;;;;;;;;;5137823;27;20285;-67
2022/07/03 14:52:12;;;;;;;6.05;4.18;;;;;;;;;;5137081;27;20305;-58
2022/07/03 14:54:41;;;;;;;10.73;4.57;;;;;;;;;;5137541;27;20290;-64
2022/07/03 14:57:26;;;;;;;5.63;4.80;;;;;;;;;;5148412;27;20280;-62
2022/07/03 15:00:05;;;;;;;8.13;4.82;;;;;;;;;;5115850;28;20295;-65
2022/07/03 15:02:40;;;;;;;6.97;4.75;;;;;;;;;;5117151;27;20217;-63
2022/07/03 15:05:08;;;;;;;7.90;4.90;;;;;;;;;;5117112;28;20249;-57
2022/07/03 15:07:40;;;;;;;5.82;4.47;;;;;;;;;;5116715;27;20249;-62
2022/07/03 15:10:10;;;;;;;6.90;4.40;;;;;;;;;;5116853;28;20233;-63
2022/07/03 15:12:43;;;;;;;6.13;4.53;;;;;;;;;;5116288;27;20236;-61
2022/07/03 15:15:12;;;;;;;5.85;4.53;;;;;;;;;;5120773;27;20210;-59
2022/07/03 15:17:41;;;;;;;6.35;4.97;;;;;;;;;;5118322;27;20217;-51